Time;durP1;ratioP1;P1;durP2;ratioP2;P2;SDS_P1;SDS_P2;PMS_P1;PMS_P2;Temp;Humidity;BMP_temperature;BMP_pressure;BME280_temperature;BME280_humidity;BME280_pressure;Samples;Min_cycle;Max_cycle;Signal;HPM_P1;HPM_P2
2023/04/23 00:02:01;;;;;;;;;;;11.20;99.90;;;;;;5041441;28;19910;-72
2023/04/23 00:04:28;;;;;;;;;;;11.20;99.90;;;;;;5039173;28;19909;-72
2023/04/23 00:06:54;;;;;;;;;;;11.20;99.90;;;;;;5045608;28;19923;-72
2023/04/23 00:09:21;;;;;;;;;;;11.30;99.90;;;;;;5034780;28;19909;-72
2023/04/23 00:11:47;;;;;;;;;;;11.30;99.90;;;;;;5047247;28;19948;-72
2023/04/23 00:14:12;;;;;;;;;;;11.20;99.90;;;;;;5049959;28;20018;-72
2023/04/23 00:16:38;;;;;;;;;;;11.20;99.90;;;;;;5041662;28;19909;-72
2023/04/23 00:19:03;;;;;;;;;;;11.40;99.90;;;;;;5050711;28;20334;-71
2023/04/23 00:21:30;;;;;;;;;;;11.40;99.90;;;;;;5044923;28;19928;-71
2023/04/23 00:23:55;;;;;;;;;;;11.40;99.90;;;;;;5048560;28;20387;-71
2023/04/23 00:26:21;;;;;;;;;;;11.40;99.90;;;;;;5041568;28;19921;-72
2023/04/23 00:28:46;;;;;;;;;;;11.40;99.90;;;;;;5045026;28;19909;-72
2023/04/23 00:31:12;;;;;;;;;;;11.40;99.90;;;;;;5046167;28;19917;-71
2023/04/23 00:33:37;;;;;;;;;;;11.30;99.90;;;;;;5040421;28;19915;-72
2023/04/23 00:36:03;;;;;;;;;;;11.30;99.90;;;;;;5040579;28;19913;-72
2023/04/23 00:38:28;;;;;;;;;;;11.30;99.90;;;;;;5043294;28;19913;-72
2023/04/23 00:40:54;;;;;;;;;;;11.30;99.90;;;;;;5046493;28;19909;-72
2023/04/23 00:43:19;;;;;;;;;;;11.20;99.90;;;;;;5050030;28;20357;-72
2023/04/23 00:45:46;;;;;;;;;;;11.20;99.90;;;;;;5041440;28;19909;-72
2023/04/23 00:48:12;;;;;;;;;;;11.20;99.90;;;;;;5042813;28;19912;-72
2023/04/23 00:50:37;;;;;;;;;;;11.20;99.90;;;;;;5038250;28;19909;-72
2023/04/23 00:53:03;;;;;;;;;;;11.30;99.90;;;;;;5042805;28;19909;-71
2023/04/23 00:55:28;;;;;;;;;;;11.30;99.90;;;;;;5042895;28;20369;-72
2023/04/23 00:57:54;;;;;;;;;;;11.30;99.90;;;;;;5050325;28;20280;-71
2023/04/23 01:00:20;;;;;;;;;;;11.40;99.90;;;;;;5048403;28;20372;-71
2023/04/23 01:02:46;;;;;;;;;;;11.50;99.90;;;;;;5033021;28;20003;-72
2023/04/23 01:05:13;;;;;;;;;;;11.60;99.90;;;;;;5047213;28;19920;-72
2023/04/23 01:07:38;;;;;;;;;;;11.50;99.90;;;;;;5037898;28;19970;-71
2023/04/23 01:10:04;;;;;;;;;;;11.50;99.90;;;;;;5039162;28;19913;-71
2023/04/23 01:12:30;;;;;;;;;;;11.50;99.90;;;;;;5041615;28;20415;-71
2023/04/23 01:14:56;;;;;;;;;;;11.50;99.90;;;;;;5044688;28;20007;-72
2023/04/23 01:17:21;;;;;;;;;;;11.50;99.90;;;;;;5038605;28;20016;-72
2023/04/23 01:19:47;;;;;;;;;;;11.40;99.90;;;;;;5044042;28;19913;-72
2023/04/23 01:22:13;;;;;;;;;;;11.40;99.90;;;;;;5045122;28;19921;-72
2023/04/23 01:24:41;;;;;;;;;;;11.30;99.90;;;;;;5050185;28;20373;-72
2023/04/23 01:27:07;;;;;;;;;;;11.30;99.90;;;;;;5040541;28;19977;-72
2023/04/23 01:29:33;;;;;;;;;;;11.30;99.90;;;;;;5041537;28;19920;-72
2023/04/23 01:31:59;;;;;;;;;;;11.30;99.90;;;;;;5039173;28;19912;-72
2023/04/23 01:34:24;;;;;;;;;;;11.20;99.90;;;;;;5041566;28;19909;-72
2023/04/23 01:36:50;;;;;;;;;;;11.10;99.90;;;;;;5036109;28;19916;-72
2023/04/23 01:39:16;;;;;;;;;;;11.10;99.90;;;;;;5050630;28;20284;-72
2023/04/23 01:43:34;;;;;;;;;;;11.10;99.90;;;;;;5093610;28;19916;-70
2023/04/23 01:46:58;;;;;;;;;;;11.10;99.90;;;;;;5091129;28;19913;-69
2023/04/23 01:49:24;;;;;;;;;;;11.10;99.90;;;;;;5087898;28;20043;-69
2023/04/23 01:51:49;;;;;;;;;;;11.10;99.90;;;;;;5087869;28;20279;-69
2023/04/23 01:55:08;;;;;;;;;;;11.00;99.90;;;;;;5087930;28;20122;-69
2023/04/23 01:57:34;;;;;;;;;;;10.90;99.90;;;;;;5092200;28;20014;-69
2023/04/23 02:00:19;;;;;;;;;;;10.90;99.90;;;;;;5094951;28;19912;-69
2023/04/23 02:02:45;;;;;;;;;;;11.00;99.90;;;;;;5082850;28;19955;-69
2023/04/23 02:05:12;;;;;;;;;;;11.00;99.90;;;;;;5087672;28;19940;-69
2023/04/23 02:07:37;;;;;;;;;;;11.00;99.90;;;;;;5089925;28;19926;-69
2023/04/23 02:10:03;;;;;;;;;;;11.00;99.90;;;;;;5088130;28;19909;-69
2023/04/23 02:12:29;;;;;;;;;;;10.90;99.90;;;;;;5090853;28;20292;-69
2023/04/23 02:14:54;;;;;;;;;;;10.90;99.90;;;;;;5093902;28;20011;-69
2023/04/23 02:17:21;;;;;;;;;;;10.80;99.90;;;;;;5087638;28;20038;-69
2023/04/23 02:19:47;;;;;;;;;;;10.80;99.90;;;;;;5088089;28;20380;-69
2023/04/23 02:22:13;;;;;;;;;;;10.70;99.90;;;;;;5084467;28;19912;-69
2023/04/23 02:24:40;;;;;;;;;;;10.80;99.90;;;;;;5087852;28;19916;-69
2023/04/23 02:27:06;;;;;;;;;;;10.60;99.90;;;;;;5090550;28;19938;-69
2023/04/23 02:29:32;;;;;;;;;;;10.50;99.90;;;;;;5087923;28;20326;-69
2023/04/23 02:31:58;;;;;;;;;;;10.50;99.90;;;;;;5091561;28;19908;-70
2023/04/23 02:34:23;;;;;;;;;;;10.50;99.90;;;;;;5086502;28;19912;-69
2023/04/23 02:36:48;;;;;;;;;;;10.50;99.90;;;;;;5088066;28;19965;-69
2023/04/23 02:39:14;;;;;;;;;;;10.40;99.90;;;;;;5087513;28;19909;-70
2023/04/23 02:41:40;;;;;;;;;;;10.40;99.90;;;;;;5093452;28;19995;-70
2023/04/23 02:44:05;;;;;;;;;;;10.30;99.90;;;;;;5086067;28;19917;-70
2023/04/23 02:46:31;;;;;;;;;;;10.30;99.90;;;;;;5089824;28;19908;-69
2023/04/23 02:48:57;;;;;;;;;;;10.20;99.90;;;;;;5086987;28;20404;-70
2023/04/23 02:51:22;;;;;;;;;;;10.20;99.90;;;;;;5086900;28;19916;-70
2023/04/23 02:53:48;;;;;;;;;;;10.50;99.90;;;;;;5092206;28;19924;-69
2023/04/23 02:56:13;;;;;;;;;;;10.50;99.90;;;;;;5088909;28;19915;-70
2023/04/23 02:58:39;;;;;;;;;;;10.10;99.90;;;;;;5093838;28;20133;-69
2023/04/23 03:01:05;;;;;;;;;;;10.00;99.90;;;;;;5083765;28;19915;-70
2023/04/23 03:03:31;;;;;;;;;;;10.00;99.90;;;;;;5086138;28;20011;-69
2023/04/23 03:05:57;;;;;;;;;;;10.00;99.90;;;;;;5079275;28;19920;-69
2023/04/23 03:08:23;;;;;;;;;;;10.00;99.90;;;;;;5073591;28;19962;-69
2023/04/23 03:10:48;;;;;;;;;;;10.00;99.90;;;;;;5073028;28;19912;-69
2023/04/23 03:13:14;;;;;;;;;;;10.00;99.90;;;;;;5076259;28;19912;-69
2023/04/23 03:15:39;;;;;;;;;;;10.00;99.90;;;;;;5073600;28;19999;-70
2023/04/23 03:18:07;;;;;;;;;;;10.00;99.90;;;;;;5077378;28;19916;-69
2023/04/23 03:20:36;;;;;;;;;;;9.90;99.90;;;;;;5068476;28;19913;-69
2023/04/23 03:23:01;;;;;;;;;;;9.90;99.90;;;;;;5068848;28;19912;-70
2023/04/23 03:25:27;;;;;;;;;;;9.80;99.90;;;;;;5076465;28;20391;-70
2023/04/23 03:27:52;;;;;;;;;;;9.80;99.90;;;;;;5072744;28;20391;-69
2023/04/23 03:30:18;;;;;;;;;;;9.80;99.90;;;;;;5077435;28;19908;-69
2023/04/23 03:32:44;;;;;;;;;;;9.80;99.90;;;;;;5079943;28;19915;-69
2023/04/23 03:35:10;;;;;;;;;;;9.70;99.90;;;;;;5078109;28;19912;-69
2023/04/23 03:37:35;;;;;;;;;;;9.80;99.90;;;;;;5072637;28;19915;-69
2023/04/23 03:40:06;;;;;;;;;;;9.70;99.90;;;;;;5071286;28;19909;-69
2023/04/23 03:42:31;;;;;;;;;;;9.70;99.90;;;;;;5074841;28;19983;-69
2023/04/23 03:44:57;;;;;;;;;;;9.70;99.90;;;;;;5076323;28;19916;-70
2023/04/23 03:47:23;;;;;;;;;;;9.40;99.90;;;;;;5075509;28;20380;-70
2023/04/23 03:49:48;;;;;;;;;;;9.60;99.90;;;;;;5077140;28;19915;-70
2023/04/23 03:52:14;;;;;;;;;;;9.60;99.90;;;;;;5073255;28;19908;-70
2023/04/23 03:54:39;;;;;;;;;;;9.60;99.90;;;;;;5079323;28;19924;-70
2023/04/23 03:57:04;;;;;;;;;;;9.60;99.90;;;;;;5072518;28;20387;-70
2023/04/23 03:59:30;;;;;;;;;;;9.60;99.90;;;;;;5072321;28;20008;-70
2023/04/23 04:01:55;;;;;;;;;;;9.70;99.90;;;;;;5078401;28;19915;-70
2023/04/23 04:04:21;;;;;;;;;;;9.70;99.90;;;;;;5075989;28;20442;-69
2023/04/23 04:06:46;;;;;;;;;;;9.70;99.90;;;;;;5072208;28;19908;-70
2023/04/23 04:09:12;;;;;;;;;;;9.70;99.90;;;;;;5075321;28;19908;-70
2023/04/23 04:11:37;;;;;;;;;;;9.80;99.90;;;;;;5072662;28;19999;-69
2023/04/23 04:14:03;;;;;;;;;;;9.80;99.90;;;;;;5074909;28;19913;-70
2023/04/23 04:16:28;;;;;;;;;;;9.80;99.90;;;;;;5072436;28;19999;-70
2023/04/23 04:18:54;;;;;;;;;;;9.80;99.90;;;;;;5071856;28;19982;-69
2023/04/23 04:21:19;;;;;;;;;;;9.80;99.90;;;;;;5072348;28;19913;-69
2023/04/23 04:23:45;;;;;;;;;;;9.80;99.90;;;;;;5076547;28;20200;-69
2023/04/23 04:26:10;;;;;;;;;;;9.80;99.90;;;;;;5071441;28;19913;-69
2023/04/23 04:28:36;;;;;;;;;;;9.80;99.90;;;;;;5071561;28;20152;-69
2023/04/23 04:31:02;;;;;;;;;;;9.80;99.90;;;;;;5071434;28;19908;-69
2023/04/23 04:33:34;;;;;;;;;;;9.70;99.90;;;;;;5075436;28;19936;-70
2023/04/23 04:36:00;;;;;;;;;;;9.60;99.90;;;;;;5070689;28;19999;-69
2023/04/23 04:38:26;;;;;;;;;;;9.50;99.90;;;;;;5067464;28;19996;-69
2023/04/23 04:40:57;;;;;;;;;;;9.50;99.90;;;;;;5071610;28;20261;-69
2023/04/23 04:43:23;;;;;;;;;;;9.40;99.90;;;;;;5071013;28;19909;-69
2023/04/23 04:45:48;;;;;;;;;;;9.40;99.90;;;;;;5072010;28;20035;-69
2023/04/23 04:48:14;;;;;;;;;;;9.30;99.90;;;;;;5072984;28;20273;-69
2023/04/23 04:50:39;;;;;;;;;;;9.50;99.90;;;;;;5072137;28;19916;-69
2023/04/23 04:53:05;;;;;;;;;;;9.30;99.90;;;;;;5078005;28;19920;-70
2023/04/23 04:55:30;;;;;;;;;;;9.30;99.90;;;;;;5070422;28;19912;-70
2023/04/23 04:57:56;;;;;;;;;;;9.30;99.90;;;;;;5071047;28;20331;-69
2023/04/23 05:00:24;;;;;;;;;;;9.30;99.90;;;;;;5071930;28;19923;-69
2023/04/23 05:02:50;;;;;;;;;;;9.20;99.90;;;;;;5078378;28;19909;-70
2023/04/23 05:05:15;;;;;;;;;;;9.20;99.90;;;;;;5067853;22;19924;-70
2023/04/23 05:07:41;;;;;;;;;;;9.30;99.90;;;;;;5055899;28;20007;-70
2023/04/23 05:10:06;;;;;;;;;;;9.40;99.90;;;;;;5050645;28;19908;-69
2023/04/23 05:12:32;;;;;;;;;;;9.40;99.90;;;;;;5050905;28;19957;-70
2023/04/23 05:14:57;;;;;;;;;;;9.50;99.90;;;;;;5056637;28;20361;-69
2023/04/23 05:17:23;;;;;;;;;;;9.60;99.90;;;;;;5055517;28;19966;-72
2023/04/23 05:19:48;;;;;;;;;;;9.70;99.90;;;;;;5059702;28;19909;-70
2023/04/23 05:22:14;;;;;;;;;;;9.50;99.90;;;;;;5051054;28;20322;-70
2023/04/23 05:24:40;;;;;;;;;;;10.00;99.90;;;;;;5049645;28;19916;-70
2023/04/23 05:27:05;;;;;;;;;;;10.10;99.90;;;;;;5050632;28;19916;-69
2023/04/23 05:29:30;;;;;;;;;;;10.10;99.90;;;;;;5050898;28;19913;-70
2023/04/23 05:31:56;;;;;;;;;;;10.20;99.90;;;;;;5051085;28;19913;-70
2023/04/23 05:34:21;;;;;;;;;;;10.40;99.90;;;;;;5049537;28;20291;-69
2023/04/23 05:36:47;;;;;;;;;;;10.50;99.90;;;;;;5051280;28;19909;-69
2023/04/23 05:39:12;;;;;;;;;;;10.60;99.90;;;;;;5053864;28;20380;-69
2023/04/23 05:41:38;;;;;;;;;;;10.70;99.90;;;;;;5049841;28;20012;-71
2023/04/23 05:44:03;;;;;;;;;;;10.70;99.90;;;;;;5054338;28;20257;-71
2023/04/23 05:46:29;;;;;;;;;;;10.60;99.90;;;;;;5050182;28;19963;-70
2023/04/23 05:48:54;;;;;;;;;;;10.60;99.90;;;;;;5050234;28;19928;-70
2023/04/23 05:51:20;;;;;;;;;;;10.40;99.90;;;;;;5050093;28;19909;-70
2023/04/23 05:53:46;;;;;;;;;;;10.30;99.90;;;;;;5056497;28;19959;-71
2023/04/23 05:56:11;;;;;;;;;;;10.20;99.90;;;;;;5054857;28;19912;-70
2023/04/23 05:58:37;;;;;;;;;;;10.30;99.90;;;;;;5056916;28;19909;-70
2023/04/23 06:01:03;;;;;;;;;;;10.40;99.90;;;;;;5044857;28;20326;-70
2023/04/23 06:03:29;;;;;;;;;;;10.50;99.90;;;;;;5044702;28;19995;-70
2023/04/23 06:05:54;;;;;;;;;;;10.50;99.90;;;;;;5042573;28;19956;-70
2023/04/23 06:08:20;;;;;;;;;;;10.60;99.90;;;;;;5043017;28;20296;-71
2023/04/23 06:10:45;;;;;;;;;;;10.80;99.90;;;;;;5045861;28;19913;-71
2023/04/23 06:13:11;;;;;;;;;;;11.20;99.90;;;;;;5045159;28;19999;-71
2023/04/23 06:15:37;;;;;;;;;;;11.40;99.90;;;;;;5045637;28;20643;-71
2023/04/23 06:18:02;;;;;;;;;;;11.50;99.90;;;;;;5043620;28;19909;-71
2023/04/23 06:20:28;;;;;;;;;;;11.70;99.90;;;;;;5048112;28;20377;-71
2023/04/23 06:22:54;;;;;;;;;;;11.90;99.90;;;;;;5043061;28;19909;-71
2023/04/23 06:25:19;;;;;;;;;;;12.00;99.90;;;;;;5041026;28;19909;-71
2023/04/23 06:27:45;;;;;;;;;;;12.10;99.90;;;;;;5034965;28;20424;-71
2023/04/23 06:30:11;;;;;;;;;;;12.20;99.90;;;;;;5034900;28;19913;-71
2023/04/23 06:32:36;;;;;;;;;;;12.20;99.90;;;;;;5035165;28;20559;-71
2023/04/23 06:35:03;;;;;;;;;;;12.70;99.90;;;;;;5039587;28;20332;-71
2023/04/23 06:37:30;;;;;;;;;;;12.40;99.90;;;;;;5045495;28;19909;-71
2023/04/23 06:39:56;;;;;;;;;;;12.10;99.90;;;;;;5039355;28;19944;-71
2023/04/23 06:42:22;;;;;;;;;;;12.30;99.90;;;;;;5039010;28;19917;-71
2023/04/23 06:44:48;;;;;;;;;;;12.20;99.90;;;;;;5039452;28;19917;-71
2023/04/23 06:47:13;;;;;;;;;;;11.80;99.90;;;;;;5042489;28;20285;-71
2023/04/23 06:49:39;;;;;;;;;;;12.30;99.90;;;;;;5039157;28;20266;-71
2023/04/23 06:52:04;;;;;;;;;;;12.40;99.90;;;;;;5037414;28;19913;-71
2023/04/23 06:54:30;;;;;;;;;;;12.50;99.90;;;;;;5039747;28;20290;-71
2023/04/23 06:56:56;;;;;;;;;;;12.60;99.90;;;;;;5039425;28;19909;-71
2023/04/23 06:59:21;;;;;;;;;;;12.70;99.90;;;;;;5044601;28;19951;-70
2023/04/23 07:01:47;;;;;;;;;;;12.30;99.90;;;;;;5050221;28;20007;-70
2023/04/23 07:04:12;;;;;;;;;;;12.80;99.90;;;;;;5043456;28;20691;-70
2023/04/23 07:06:38;;;;;;;;;;;12.70;99.90;;;;;;5042574;28;19913;-71
2023/04/23 07:09:03;;;;;;;;;;;12.70;99.90;;;;;;5040018;28;19909;-70
2023/04/23 07:11:30;;;;;;;;;;;12.80;99.90;;;;;;5042770;28;19909;-71
2023/04/23 07:13:56;;;;;;;;;;;13.50;99.90;;;;;;5038088;28;19921;-70
2023/04/23 07:16:23;;;;;;;;;;;14.20;99.90;;;;;;5034633;28;19917;-71
2023/04/23 07:18:49;;;;;;;;;;;15.30;99.90;;;;;;5036450;28;19978;-71
2023/04/23 07:21:14;;;;;;;;;;;15.70;99.90;;;;;;5035704;28;20357;-71
2023/04/23 07:23:40;;;;;;;;;;;16.90;99.90;;;;;;5039146;28;19963;-71
2023/04/23 07:26:05;;;;;;;;;;;16.60;99.90;;;;;;5037579;28;19913;-71
2023/04/23 07:28:31;;;;;;;;;;;16.20;99.90;;;;;;5034793;28;19920;-71
2023/04/23 07:30:57;;;;;;;;;;;16.70;99.90;;;;;;5038653;28;19913;-71
2023/04/23 07:33:23;;;;;;;;;;;16.70;99.90;;;;;;5052536;28;20319;-71
2023/04/23 07:35:48;;;;;;;;;;;16.20;99.90;;;;;;5049251;28;19909;-71
2023/04/23 07:38:14;;;;;;;;;;;16.10;99.90;;;;;;5048377;28;19908;-71
2023/04/23 07:40:39;;;;;;;;;;;16.40;99.90;;;;;;5049344;28;19912;-71
2023/04/23 07:43:05;;;;;;;;;;;16.70;99.90;;;;;;5047217;28;20003;-71
2023/04/23 07:45:30;;;;;;;;;;;16.60;99.90;;;;;;5048168;28;19938;-71
2023/04/23 07:47:56;;;;;;;;;;;16.30;99.90;;;;;;5046897;28;19920;-71
2023/04/23 07:50:21;;;;;;;;;;;16.70;99.90;;;;;;5048669;28;19999;-71
2023/04/23 07:52:47;;;;;;;;;;;18.40;99.90;;;;;;5049569;28;20357;-71
2023/04/23 07:55:12;;;;;;;;;;;17.90;99.90;;;;;;5050893;28;19913;-71
2023/04/23 07:57:38;;;;;;;;;;;16.20;99.90;;;;;;5046626;28;19974;-71
2023/04/23 08:00:08;;;;;;;;;;;16.60;99.90;;;;;;5047830;28;19915;-71
2023/04/23 08:02:34;;;;;;;;;;;18.50;99.90;;;;;;5046925;28;20368;-71
2023/04/23 08:04:59;;;;;;;;;;;18.00;99.90;;;;;;5047668;28;19916;-71
2023/04/23 08:07:25;;;;;;;;;;;17.30;99.90;;;;;;5046350;28;19909;-70
2023/04/23 08:09:51;;;;;;;;;;;16.80;99.90;;;;;;5044456;28;19924;-71
2023/04/23 08:12:17;;;;;;;;;;;16.70;99.90;;;;;;5049937;28;20003;-71
2023/04/23 08:14:43;;;;;;;;;;;16.70;99.90;;;;;;5049240;28;20498;-71
2023/04/23 08:17:08;;;;;;;;;;;16.30;99.90;;;;;;5047830;28;19915;-70
2023/04/23 08:19:34;;;;;;;;;;;15.80;99.90;;;;;;5048297;28;19912;-70
2023/04/23 08:22:00;;;;;;;;;;;16.10;99.90;;;;;;5057260;28;19991;-70
2023/04/23 08:24:26;;;;;;;;;;;16.10;99.90;;;;;;5053779;28;19955;-71
2023/04/23 08:26:52;;;;;;;;;;;16.80;99.90;;;;;;5062240;28;19971;-70
2023/04/23 08:29:17;;;;;;;;;;;16.40;99.90;;;;;;5054932;28;20334;-70
2023/04/23 08:31:43;;;;;;;;;;;16.60;99.90;;;;;;5056818;28;20277;-70
2023/04/23 08:34:08;;;;;;;;;;;16.90;99.90;;;;;;5056687;28;19966;-71
2023/04/23 08:36:34;;;;;;;;;;;16.90;99.90;;;;;;5052085;28;19920;-70
2023/04/23 08:39:00;;;;;;;;;;;16.20;99.90;;;;;;5052639;28;19942;-71
2023/04/23 08:41:30;;;;;;;;;;;16.00;99.90;;;;;;5051163;28;19919;-71
2023/04/23 08:44:09;;;;;;;;;;;15.80;99.90;;;;;;5051048;28;20296;-71
2023/04/23 08:46:35;;;;;;;;;;;15.70;99.90;;;;;;5047324;28;19919;-70
2023/04/23 08:49:01;;;;;;;;;;;16.20;99.90;;;;;;5050880;28;19916;-71
2023/04/23 08:51:29;;;;;;;;;;;16.70;99.90;;;;;;5051164;28;19909;-71
2023/04/23 08:53:55;;;;;;;;;;;17.40;99.90;;;;;;5042352;28;19967;-71
2023/04/23 08:56:21;;;;;;;;;;;17.60;99.90;;;;;;5052230;28;19916;-71
2023/04/23 08:58:48;;;;;;;;;;;17.60;99.90;;;;;;5051174;28;19908;-71
2023/04/23 09:01:14;;;;;;;;;;;17.50;99.90;;;;;;5051099;28;20357;-71
2023/04/23 09:03:41;;;;;;;;;;;17.00;99.50;;;;;;5050911;28;19995;-71
2023/04/23 09:06:06;;;;;;;;;;;17.20;99.90;;;;;;5049224;28;20008;-72
2023/04/23 09:08:32;;;;;;;;;;;17.30;99.90;;;;;;5052487;28;20008;-71
2023/04/23 09:10:59;;;;;;;;;;;17.80;99.90;;;;;;5049900;28;20361;-71
2023/04/23 09:13:25;;;;;;;;;;;18.70;98.90;;;;;;5049024;28;19913;-71
2023/04/23 09:15:50;;;;;;;;;;;19.70;96.70;;;;;;5054298;28;20003;-71
2023/04/23 09:18:17;;;;;;;;;;;19.20;92.10;;;;;;5052498;28;20298;-71
2023/04/23 09:20:43;;;;;;;;;;;20.40;93.90;;;;;;5056829;28;20289;-71
2023/04/23 09:23:12;;;;;;;;;;;22.40;88.00;;;;;;5055832;28;19966;-71
2023/04/23 09:25:37;;;;;;;;;;;20.80;88.70;;;;;;5054225;28;19913;-72
2023/04/23 09:28:06;;;;;;;;;;;18.80;90.50;;;;;;5057190;28;19916;-72
2023/04/23 09:30:37;;;;;;;;;;;18.70;92.30;;;;;;5055713;28;19913;-72
2023/04/23 09:33:03;;;;;;;;;;;21.40;87.60;;;;;;5061396;28;19952;-72
2023/04/23 09:35:31;;;;;;;;;;;21.50;85.20;;;;;;5056314;28;19948;-72
2023/04/23 09:37:57;;;;;;;;;;;21.70;81.90;;;;;;5050778;28;19919;-72
2023/04/23 09:40:23;;;;;;;;;;;21.80;77.10;;;;;;5057257;28;19910;-72
2023/04/23 09:42:49;;;;;;;;;;;21.40;82.40;;;;;;5050724;28;20292;-72
2023/04/23 09:45:15;;;;;;;;;;;22.70;81.20;;;;;;5056721;28;19955;-72
2023/04/23 09:47:47;;;;;;;;;;;22.00;76.50;;;;;;5053733;28;20203;-72
2023/04/23 09:50:12;;;;;;;;;;;20.50;81.90;;;;;;5051134;28;19913;-72
2023/04/23 09:52:38;;;;;;;;;;;21.20;82.50;;;;;;5058809;28;19915;-72
2023/04/23 09:55:04;;;;;;;;;;;21.10;75.60;;;;;;5053362;28;19920;-72
2023/04/23 09:57:35;;;;;;;;;;;21.00;82.30;;;;;;5050466;28;19920;-72
2023/04/23 10:00:11;;;;;;;;;;;21.10;79.10;;;;;;5050743;28;19999;-72
2023/04/23 10:02:36;;;;;;;;;;;23.00;81.10;;;;;;5057277;28;20342;-72
2023/04/23 10:05:12;;;;;;;;;;;24.00;75.00;;;;;;5052442;28;19917;-72
2023/04/23 10:07:38;;;;;;;;;;;22.10;74.20;;;;;;5046204;28;20253;-72
2023/04/23 10:10:04;;;;;;;;;;;21.00;78.00;;;;;;5052455;28;19915;-72
2023/04/23 10:12:30;;;;;;;;;;;20.80;78.10;;;;;;5053383;28;20277;-72
2023/04/23 10:14:58;;;;;;;;;;;20.00;78.60;;;;;;5056891;28;19913;-73
2023/04/23 10:17:23;;;;;;;;;;;21.10;79.20;;;;;;5054408;28;19909;-72
2023/04/23 10:19:50;;;;;;;;;;;22.00;79.50;;;;;;5062448;28;19909;-72
2023/04/23 10:22:18;;;;;;;;;;;21.80;70.30;;;;;;5059826;28;19912;-72
2023/04/23 10:24:44;;;;;;;;;;;19.90;79.80;;;;;;5053820;28;19908;-72
2023/04/23 10:27:12;;;;;;;;;;;20.90;78.40;;;;;;5054721;28;20512;-72
2023/04/23 10:29:37;;;;;;;;;;;19.10;80.00;;;;;;5053590;28;19909;-72
2023/04/23 10:32:05;;;;;;;;;;;19.10;84.90;;;;;;5054128;28;20004;-72
2023/04/23 10:34:30;;;;;;;;;;;19.90;83.50;;;;;;5053392;28;19920;-72
2023/04/23 10:36:58;;;;;;;;;;;19.80;84.50;;;;;;5054738;28;19909;-72
2023/04/23 10:39:24;;;;;;;;;;;20.20;78.90;;;;;;5053553;28;20304;-72
2023/04/23 10:41:51;;;;;;;;;;;19.10;84.70;;;;;;5054828;28;19908;-72
2023/04/23 10:44:20;;;;;;;;;;;20.30;86.30;;;;;;5052781;28;20400;-72
2023/04/23 10:46:52;;;;;;;;;;;21.70;79.90;;;;;;5053772;28;20359;-72
2023/04/23 10:49:18;;;;;;;;;;;20.90;76.10;;;;;;5054275;28;20303;-72
2023/04/23 10:51:47;;;;;;;;;;;21.20;80.40;;;;;;5053637;28;19909;-72
2023/04/23 10:54:16;;;;;;;;;;;22.40;76.60;;;;;;5052778;28;20322;-72
2023/04/23 10:56:42;;;;;;;;;;;24.70;70.10;;;;;;5055281;28;19921;-72
2023/04/23 10:59:17;;;;;;;;;;;23.90;70.70;;;;;;5053861;28;19923;-70
2023/04/23 11:01:45;;;;;;;;;;;21.70;71.90;;;;;;5053540;28;19935;-69
2023/04/23 11:04:28;;;;;;;;;;;21.00;74.40;;;;;;5055400;28;19923;-70
2023/04/23 11:07:03;;;;;;;;;;;22.30;75.10;;;;;;5051865;28;19995;-70
2023/04/23 11:09:29;;;;;;;;;;;20.80;75.10;;;;;;5045161;28;19909;-70
2023/04/23 11:11:56;;;;;;;;;;;21.00;77.50;;;;;;5053307;28;19916;-70
2023/04/23 11:14:35;;;;;;;;;;;19.50;79.60;;;;;;5052771;28;19967;-70
2023/04/23 11:17:01;;;;;;;;;;;19.30;81.40;;;;;;5060300;28;19909;-70
2023/04/23 11:19:28;;;;;;;;;;;19.10;80.80;;;;;;5045193;28;19931;-70
2023/04/23 11:21:53;;;;;;;;;;;19.30;84.50;;;;;;5061569;28;19913;-70
2023/04/23 11:24:21;;;;;;;;;;;20.00;84.60;;;;;;5054774;28;19916;-69
2023/04/23 11:26:47;;;;;;;;;;;20.60;76.70;;;;;;5052225;28;19915;-70
2023/04/23 11:29:14;;;;;;;;;;;20.20;82.00;;;;;;5055320;28;19952;-70
2023/04/23 11:31:39;;;;;;;;;;;20.30;74.40;;;;;;5052836;28;19912;-70
2023/04/23 11:34:07;;;;;;;;;;;23.40;73.80;;;;;;5052108;28;20327;-71
2023/04/23 11:36:33;;;;;;;;;;;24.50;69.80;;;;;;5052854;28;19909;-72
2023/04/23 11:39:01;;;;;;;;;;;25.20;66.30;;;;;;5054098;28;19955;-72
2023/04/23 11:41:28;;;;;;;;;;;24.40;67.00;;;;;;5053022;28;19909;-72
2023/04/23 11:43:57;;;;;;;;;;;22.50;75.20;;;;;;5056946;28;19948;-72
2023/04/23 11:46:23;;;;;;;;;;;22.50;69.90;;;;;;5058384;28;19909;-72
2023/04/23 11:48:48;;;;;;;;;;;23.60;73.00;;;;;;5058609;28;20311;-70
2023/04/23 11:51:15;;;;;;;;;;;25.00;64.80;;;;;;5052381;28;19916;-70
2023/04/23 11:53:46;;;;;;;;;;;27.30;64.30;;;;;;5052073;28;19920;-70
2023/04/23 11:56:14;;;;;;;;;;;25.70;59.30;;;;;;5052071;28;19917;-69
2023/04/23 11:58:40;;;;;;;;;;;21.20;73.00;;;;;;5052478;28;19936;-69
2023/04/23 12:01:06;;;;;;;;;;;21.30;72.50;;;;;;5051891;28;20308;-70
2023/04/23 12:03:32;;;;;;;;;;;21.50;74.00;;;;;;5051602;28;19917;-69
2023/04/23 12:05:58;;;;;;;;;;;23.80;72.90;;;;;;5051754;28;19939;-70
2023/04/23 12:08:24;;;;;;;;;;;23.60;70.70;;;;;;5052094;28;19908;-70
2023/04/23 12:10:51;;;;;;;;;;;22.80;72.80;;;;;;5058276;28;20347;-70
2023/04/23 12:13:17;;;;;;;;;;;23.10;70.00;;;;;;5055666;28;20320;-72
2023/04/23 12:15:55;;;;;;;;;;;23.20;69.00;;;;;;5051790;28;20288;-70
2023/04/23 12:18:26;;;;;;;;;;;23.90;70.50;;;;;;5052680;28;19909;-70
2023/04/23 12:20:51;;;;;;;;;;;24.00;67.70;;;;;;5058601;28;19924;-70
2023/04/23 12:23:17;;;;;;;;;;;24.20;67.40;;;;;;5053053;28;19909;-70
2023/04/23 12:25:42;;;;;;;;;;;26.00;64.80;;;;;;5055546;28;19909;-70
2023/04/23 12:28:08;;;;;;;;;;;26.30;62.60;;;;;;5051683;28;19909;-70
2023/04/23 12:30:34;;;;;;;;;;;26.80;58.60;;;;;;5051654;28;19948;-70
2023/04/23 12:33:05;;;;;;;;;;;27.10;59.40;;;;;;5058404;28;20284;-71
2023/04/23 12:35:40;;;;;;;;;;;25.60;58.00;;;;;;5043343;28;20319;-70
2023/04/23 12:38:06;;;;;;;;;;;26.60;58.90;;;;;;5054110;28;19915;-70
2023/04/23 12:40:32;;;;;;;;;;;26.10;57.60;;;;;;5051279;28;19912;-70
2023/04/23 12:42:57;;;;;;;;;;;22.00;67.20;;;;;;5051279;28;19936;-71
2023/04/23 12:45:23;;;;;;;;;;;22.80;65.20;;;;;;5058695;28;20050;-71
2023/04/23 12:47:48;;;;;;;;;;;25.20;60.90;;;;;;5055583;28;19909;-71
2023/04/23 12:50:14;;;;;;;;;;;26.90;58.90;;;;;;5053653;28;20320;-71
2023/04/23 12:52:40;;;;;;;;;;;27.20;56.80;;;;;;5051035;28;19909;-71
2023/04/23 12:55:06;;;;;;;;;;;25.70;59.30;;;;;;5052606;28;19952;-70
2023/04/23 12:57:31;;;;;;;;;;;26.10;55.50;;;;;;5050718;28;19951;-72
2023/04/23 12:59:57;;;;;;;;;;;23.90;62.80;;;;;;5054436;28;20320;-71
2023/04/23 13:02:23;;;;;;;;;;;20.70;67.00;;;;;;5054239;28;19909;-71
2023/04/23 13:04:48;;;;;;;;;;;22.30;65.70;;;;;;5052545;28;19920;-71
2023/04/23 13:07:14;;;;;;;;;;;26.00;57.40;;;;;;5050818;28;19915;-72
2023/04/23 13:09:39;;;;;;;;;;;27.50;57.20;;;;;;5051055;28;19909;-71
2023/04/23 13:12:05;;;;;;;;;;;27.60;53.20;;;;;;5050526;28;19919;-70
2023/04/23 13:14:31;;;;;;;;;;;27.00;53.90;;;;;;5050186;28;20425;-72
2023/04/23 13:16:57;;;;;;;;;;;26.60;54.90;;;;;;5050891;28;19919;-72
2023/04/23 13:19:23;;;;;;;;;;;27.80;54.80;;;;;;5050535;28;19952;-71
2023/04/23 13:21:48;;;;;;;;;;;28.00;54.90;;;;;;5056838;28;19909;-72
2023/04/23 13:24:14;;;;;;;;;;;28.60;54.50;;;;;;5049965;28;19909;-71
2023/04/23 13:26:39;;;;;;;;;;;25.90;55.60;;;;;;5050892;28;20280;-71
2023/04/23 13:29:05;;;;;;;;;;;24.80;60.80;;;;;;5052456;28;19909;-71
2023/04/23 13:31:30;;;;;;;;;;;23.40;60.70;;;;;;5048970;28;19916;-71
2023/04/23 13:33:56;;;;;;;;;;;22.60;64.90;;;;;;5050155;28;20308;-71
2023/04/23 13:36:22;;;;;;;;;;;24.00;64.80;;;;;;5049900;28;19917;-71
2023/04/23 13:38:48;;;;;;;;;;;22.70;62.40;;;;;;5049907;28;20046;-71
2023/04/23 13:41:14;;;;;;;;;;;22.00;64.60;;;;;;5051253;28;19995;-71
2023/04/23 13:43:39;;;;;;;;;;;21.50;66.30;;;;;;5050061;28;19908;-71
2023/04/23 13:46:05;;;;;;;;;;;23.40;64.70;;;;;;5051611;28;19908;-72
2023/04/23 13:48:30;;;;;;;;;;;21.90;61.80;;;;;;5049825;28;19909;-70
2023/04/23 13:50:57;;;;;;;;;;;20.70;68.70;;;;;;5053434;28;19912;-71
2023/04/23 13:53:22;;;;;;;;;;;20.80;71.10;;;;;;5050301;28;19916;-71
2023/04/23 13:55:48;;;;;;;;;;;21.30;69.10;;;;;;5051587;28;20290;-71
2023/04/23 13:58:13;;;;;;;;;;;24.70;60.20;;;;;;5050265;28;19962;-71
2023/04/23 14:00:40;;;;;;;;;;;23.10;64.90;;;;;;5055282;28;20357;-72
2023/04/23 14:03:06;;;;;;;;;;;21.40;66.30;;;;;;5053605;28;19962;-71
2023/04/23 14:05:32;;;;;;;;;;;24.50;61.40;;;;;;5051410;28;19966;-71
2023/04/23 14:07:57;;;;;;;;;;;24.20;60.10;;;;;;5050382;28;19913;-71
2023/04/23 14:10:23;;;;;;;;;;;26.10;57.50;;;;;;5054813;28;20281;-71
2023/04/23 14:12:48;;;;;;;;;;;23.20;58.60;;;;;;5053616;28;19909;-71
2023/04/23 14:15:14;;;;;;;;;;;23.30;61.00;;;;;;5050819;28;20216;-71
2023/04/23 14:17:41;;;;;;;;;;;24.20;63.80;;;;;;5050023;28;19916;-71